Stoneybreak, Pennsylvania
Current Conditions -  °F | °C
As of 10:53 AM on Saturday 22 Nov 2014 (Local Time) from KHGR Reporting Station
Clear Clear  
Wind Chill: 29°   Ceiling: Unl
Heat Index: 36°   Visibility: 10mi
Dew Point:   Wind: 9mph
Humidity: 33%   Direction: 200°SSW
Pressure: 30.4"   Gusts: NA
Location:  39.7745°N, 78.2026°W
Report Text: KHGR 221553Z 20008KT 10SM CLR 02/M13 A3040 RMK AO2 SLP312 T00221128
Loading
Personal Weather Stations






























Interactive Weather Map New forecast layout! Learn more

10-Day Weather Forecast

Advertisements
Track Severe Weather on mobile